sensor_id;sensor_type;location;lat;lon;timestamp;pressure;altitude;pressure_sealevel;temperature;humidity
25658;BME280;13517;59.320;18.042;2022-08-19T00:00:28;101014.81;;;18.89;100.00
25658;BME280;13517;59.320;18.042;2022-08-19T00:02:53;101018.56;;;18.88;100.00
25658;BME280;13517;59.320;18.042;2022-08-19T00:05:20;101020.84;;;18.93;100.00
25658;BME280;13517;59.320;18.042;2022-08-19T00:07:46;101020.00;;;18.92;100.00
25658;BME280;13517;59.320;18.042;2022-08-19T00:10:13;101012.38;;;18.86;100.00
25658;BME280;13517;59.320;18.042;2022-08-19T00:12:40;101021.41;;;18.97;100.00
25658;BME280;13517;59.320;18.042;2022-08-19T00:15:08;101013.06;;;18.98;100.00
25658;BME280;13517;59.320;18.042;2022-08-19T00:17:38;101015.66;;;19.00;100.00
25658;BME280;13517;59.320;18.042;2022-08-19T00:20:04;101008.44;;;18.99;100.00
25658;BME280;13517;59.320;18.042;2022-08-19T00:22:30;101008.88;;;19.04;100.00
25658;BME280;13517;59.320;18.042;2022-08-19T00:24:56;101010.47;;;19.07;100.00
25658;BME280;13517;59.320;18.042;2022-08-19T00:27:21;100998.94;;;18.93;100.00
25658;BME280;13517;59.320;18.042;2022-08-19T00:29:47;100997.22;;;19.02;100.00
25658;BME280;13517;59.320;18.042;2022-08-19T00:32:12;101012.75;;;19.11;100.00
25658;BME280;13517;59.320;18.042;2022-08-19T00:34:37;101009.19;;;19.11;100.00
25658;BME280;13517;59.320;18.042;2022-08-19T00:37:03;100988.28;;;19.00;100.00
25658;BME280;13517;59.320;18.042;2022-08-19T00:39:28;101001.22;;;19.17;100.00
25658;BME280;13517;59.320;18.042;2022-08-19T00:41:53;101002.94;;;19.18;100.00
25658;BME280;13517;59.320;18.042;2022-08-19T00:44:22;101000.34;;;19.17;100.00
25658;BME280;13517;59.320;18.042;2022-08-19T00:46:51;100992.69;;;19.21;100.00
25658;BME280;13517;59.320;18.042;2022-08-19T00:49:25;100993.41;;;19.23;100.00
25658;BME280;13517;59.320;18.042;2022-08-19T00:51:55;100977.59;;;19.16;100.00
25658;BME280;13517;59.320;18.042;2022-08-19T00:54:23;100973.81;;;19.17;100.00
25658;BME280;13517;59.320;18.042;2022-08-19T00:56:49;100984.75;;;19.27;100.00
25658;BME280;13517;59.320;18.042;2022-08-19T00:59:16;100990.19;;;19.37;100.00
25658;BME280;13517;59.320;18.042;2022-08-19T01:01:44;100995.22;;;19.42;100.00
25658;BME280;13517;59.320;18.042;2022-08-19T01:04:10;100983.53;;;19.40;100.00
25658;BME280;13517;59.320;18.042;2022-08-19T01:06:36;100985.41;;;19.39;100.00
25658;BME280;13517;59.320;18.042;2022-08-19T01:09:03;100986.84;;;19.43;100.00
25658;BME280;13517;59.320;18.042;2022-08-19T01:11:30;100993.34;;;19.42;100.00
25658;BME280;13517;59.320;18.042;2022-08-19T01:13:57;100994.13;;;19.53;100.00
25658;BME280;13517;59.320;18.042;2022-08-19T01:16:25;100986.94;;;19.52;100.00
25658;BME280;13517;59.320;18.042;2022-08-19T01:18:52;100993.81;;;19.56;100.00
25658;BME280;13517;59.320;18.042;2022-08-19T01:21:22;100990.25;;;19.55;100.00
25658;BME280;13517;59.320;18.042;2022-08-19T01:23:51;100978.41;;;19.55;100.00
25658;BME280;13517;59.320;18.042;2022-08-19T01:26:20;100954.66;;;19.45;100.00
25658;BME280;13517;59.320;18.042;2022-08-19T01:28:48;100943.47;;;19.39;100.00
25658;BME280;13517;59.320;18.042;2022-08-19T01:31:22;100977.94;;;19.59;100.00
25658;BME280;13517;59.320;18.042;2022-08-19T01:33:50;100965.13;;;19.60;100.00
25658;BME280;13517;59.320;18.042;2022-08-19T01:36:23;100981.28;;;19.63;100.00
25658;BME280;13517;59.320;18.042;2022-08-19T01:38:51;100981.81;;;19.67;100.00
25658;BME280;13517;59.320;18.042;2022-08-19T01:41:17;100983.69;;;19.66;100.00
25658;BME280;13517;59.320;18.042;2022-08-19T01:43:43;100985.13;;;19.70;100.00
25658;BME280;13517;59.320;18.042;2022-08-19T01:46:09;100991.31;;;19.72;100.00
25658;BME280;13517;59.320;18.042;2022-08-19T01:48:37;100985.81;;;19.72;100.00
25658;BME280;13517;59.320;18.042;2022-08-19T01:51:03;100983.22;;;19.71;100.00
25658;BME280;13517;59.320;18.042;2022-08-19T01:53:29;100987.41;;;19.75;100.00
25658;BME280;13517;59.320;18.042;2022-08-19T01:55:55;100976.34;;;19.67;100.00
25658;BME280;13517;59.320;18.042;2022-08-19T01:58:23;100986.66;;;19.73;100.00
25658;BME280;13517;59.320;18.042;2022-08-19T02:00:49;100946.88;;;19.51;100.00
25658;BME280;13517;59.320;18.042;2022-08-19T02:03:15;100978.63;;;19.71;100.00
25658;BME280;13517;59.320;18.042;2022-08-19T02:05:41;100984.09;;;19.71;100.00
25658;BME280;13517;59.320;18.042;2022-08-19T02:08:07;100983.06;;;19.72;100.00
25658;BME280;13517;59.320;18.042;2022-08-19T02:10:33;100968.41;;;19.64;100.00
25658;BME280;13517;59.320;18.042;2022-08-19T02:12:58;100977.88;;;19.69;100.00
25658;BME280;13517;59.320;18.042;2022-08-19T02:15:24;100961.69;;;19.58;100.00
25658;BME280;13517;59.320;18.042;2022-08-19T02:17:51;100983.38;;;19.69;100.00
25658;BME280;13517;59.320;18.042;2022-08-19T02:20:16;100960.03;;;19.65;100.00
25658;BME280;13517;59.320;18.042;2022-08-19T02:22:42;100976.25;;;19.77;100.00
25658;BME280;13517;59.320;18.042;2022-08-19T02:25:12;100973.84;;;19.73;100.00
25658;BME280;13517;59.320;18.042;2022-08-19T02:27:39;100983.47;;;19.78;100.00
25658;BME280;13517;59.320;18.042;2022-08-19T02:30:07;100981.59;;;19.78;100.00
25658;BME280;13517;59.320;18.042;2022-08-19T02:32:33;100951.81;;;19.65;100.00
25658;BME280;13517;59.320;18.042;2022-08-19T02:34:58;100959.44;;;19.71;100.00
25658;BME280;13517;59.320;18.042;2022-08-19T02:37:24;100971.78;;;19.76;100.00
25658;BME280;13517;59.320;18.042;2022-08-19T02:40:08;100974.38;;;19.77;100.00
25658;BME280;13517;59.320;18.042;2022-08-19T02:42:33;100976.25;;;19.77;100.00
25658;BME280;13517;59.320;18.042;2022-08-19T02:44:58;100964.19;;;19.69;100.00
25658;BME280;13517;59.320;18.042;2022-08-19T02:47:24;100973.84;;;19.73;100.00
25658;BME280;13517;59.320;18.042;2022-08-19T02:49:50;100977.28;;;19.76;100.00
25658;BME280;13517;59.320;18.042;2022-08-19T02:52:16;100959.78;;;19.58;100.00
25658;BME280;13517;59.320;18.042;2022-08-19T02:54:41;100990.84;;;19.77;100.00
25658;BME280;13517;59.320;18.042;2022-08-19T02:57:07;100975.25;;;19.78;100.00
25658;BME280;13517;59.320;18.042;2022-08-19T02:59:33;100969.94;;;19.76;100.00
25658;BME280;13517;59.320;18.042;2022-08-19T03:01:59;100982.84;;;19.84;100.00
25658;BME280;13517;59.320;18.042;2022-08-19T03:04:24;100984.88;;;19.82;100.00
25658;BME280;13517;59.320;18.042;2022-08-19T03:06:50;100954.47;;;19.57;100.00
25658;BME280;13517;59.320;18.042;2022-08-19T03:09:17;100977.28;;;19.76;100.00
25658;BME280;13517;59.320;18.042;2022-08-19T03:11:43;100991.38;;;19.81;100.00
25658;BME280;13517;59.320;18.042;2022-08-19T03:14:09;100955.59;;;19.64;100.00
25658;BME280;13517;59.320;18.042;2022-08-19T03:16:44;100960.88;;;19.66;100.00
25658;BME280;13517;59.320;18.042;2022-08-19T03:19:10;100940.78;;;19.57;100.00
25658;BME280;13517;59.320;18.042;2022-08-19T03:21:35;100976.66;;;19.82;100.00
25658;BME280;13517;59.320;18.042;2022-08-19T03:24:04;100978.28;;;19.74;100.00
25658;BME280;13517;59.320;18.042;2022-08-19T03:26:30;100966.22;;;19.67;100.00
25658;BME280;13517;59.320;18.042;2022-08-19T03:28:56;100975.25;;;19.78;100.00
25658;BME280;13517;59.320;18.042;2022-08-19T03:31:22;100994.81;;;19.83;100.00
25658;BME280;13517;59.320;18.042;2022-08-19T03:33:49;100980.88;;;19.76;100.00
25658;BME280;13517;59.320;18.042;2022-08-19T03:36:20;100987.22;;;19.77;100.00
25658;BME280;13517;59.320;18.042;2022-08-19T03:38:51;100993.25;;;19.80;100.00
25658;BME280;13517;59.320;18.042;2022-08-19T03:41:20;100985.03;;;19.80;100.00
25658;BME280;13517;59.320;18.042;2022-08-19T03:43:46;100982.47;;;19.79;100.00
25658;BME280;13517;59.320;18.042;2022-08-19T03:46:14;100989.75;;;19.88;100.00
25658;BME280;13517;59.320;18.042;2022-08-19T03:48:41;100990.44;;;19.90;100.00
25658;BME280;13517;59.320;18.042;2022-08-19T03:51:14;100976.38;;;19.85;100.00
25658;BME280;13517;59.320;18.042;2022-08-19T03:53:40;100982.69;;;19.85;100.00
25658;BME280;13517;59.320;18.042;2022-08-19T03:56:08;100992.16;;;19.91;100.00
25658;BME280;13517;59.320;18.042;2022-08-19T03:58:34;100961.84;;;19.74;100.00
25658;BME280;13517;59.320;18.042;2022-08-19T04:00:59;100988.44;;;19.92;100.00
25658;BME280;13517;59.320;18.042;2022-08-19T04:03:25;101000.00;;;19.96;100.00
25658;BME280;13517;59.320;18.042;2022-08-19T04:05:52;101005.47;;;19.96;100.00
25658;BME280;13517;59.320;18.042;2022-08-19T04:08:19;101001.41;;;19.90;100.00
25658;BME280;13517;59.320;18.042;2022-08-19T04:10:48;100968.50;;;19.72;100.00
25658;BME280;13517;59.320;18.042;2022-08-19T04:13:17;101004.69;;;20.04;100.00
25658;BME280;13517;59.320;18.042;2022-08-19T04:15:45;100997.56;;;20.11;100.00
25658;BME280;13517;59.320;18.042;2022-08-19T04:18:11;100998.50;;;20.20;100.00
25658;BME280;13517;59.320;18.042;2022-08-19T04:20:44;100974.84;;;20.00;100.00
25658;BME280;13517;59.320;18.042;2022-08-19T04:23:12;101016.53;;;20.22;100.00
25658;BME280;13517;59.320;18.042;2022-08-19T04:25:42;101011.59;;;20.26;100.00
25658;BME280;13517;59.320;18.042;2022-08-19T04:28:10;101005.25;;;20.25;100.00
25658;BME280;13517;59.320;18.042;2022-08-19T04:30:48;100987.22;;;20.05;100.00
25658;BME280;13517;59.320;18.042;2022-08-19T04:33:16;101025.38;;;20.34;100.00
25658;BME280;13517;59.320;18.042;2022-08-19T04:35:44;101013.16;;;20.28;100.00
25658;BME280;13517;59.320;18.042;2022-08-19T04:38:10;101023.53;;;20.35;100.00
25658;BME280;13517;59.320;18.042;2022-08-19T04:40:41;101024.50;;;20.34;100.00
25658;BME280;13517;59.320;18.042;2022-08-19T04:43:25;101024.50;;;20.34;100.00
25658;BME280;13517;59.320;18.042;2022-08-19T04:45:50;101031.09;;;20.41;100.00
25658;BME280;13517;59.320;18.042;2022-08-19T04:48:16;101028.34;;;20.41;100.00
25658;BME280;13517;59.320;18.042;2022-08-19T04:50:44;101020.13;;;20.41;100.00
25658;BME280;13517;59.320;18.042;2022-08-19T04:53:10;101012.91;;;20.40;100.00
25658;BME280;13517;59.320;18.042;2022-08-19T04:55:39;101019.81;;;20.44;100.00
25658;BME280;13517;59.320;18.042;2022-08-19T04:58:04;101032.59;;;20.53;100.00
25658;BME280;13517;59.320;18.042;2022-08-19T05:00:30;101010.56;;;20.45;100.00
25658;BME280;13517;59.320;18.042;2022-08-19T05:02:55;101026.00;;;20.64;100.00
25658;BME280;13517;59.320;18.042;2022-08-19T05:05:20;100978.97;;;20.41;100.00
25658;BME280;13517;59.320;18.042;2022-08-19T05:07:46;101011.72;;;20.61;100.00
25658;BME280;13517;59.320;18.042;2022-08-19T05:10:12;101023.16;;;20.74;100.00
25658;BME280;13517;59.320;18.042;2022-08-19T05:12:38;101025.59;;;20.77;100.00
25658;BME280;13517;59.320;18.042;2022-08-19T05:15:05;101026.16;;;20.81;100.00
25658;BME280;13517;59.320;18.042;2022-08-19T05:17:31;101023.97;;;20.85;100.00
25658;BME280;13517;59.320;18.042;2022-08-19T05:19:56;101018.69;;;20.91;100.00
25658;BME280;13517;59.320;18.042;2022-08-19T05:22:41;101012.72;;;20.78;100.00
25658;BME280;13517;59.320;18.042;2022-08-19T05:25:13;101011.69;;;20.97;100.00
25658;BME280;13517;59.320;18.042;2022-08-19T05:27:40;101008.81;;;21.07;100.00
25658;BME280;13517;59.320;18.042;2022-08-19T05:30:05;101004.59;;;21.13;100.00
25658;BME280;13517;59.320;18.042;2022-08-19T05:32:31;100985.66;;;21.09;100.00
25658;BME280;13517;59.320;18.042;2022-08-19T05:34:56;101007.38;;;21.21;100.00
25658;BME280;13517;59.320;18.042;2022-08-19T05:37:22;100998.78;;;21.24;100.00
25658;BME280;13517;59.320;18.042;2022-08-19T05:39:47;101011.88;;;21.30;100.00
25658;BME280;13517;59.320;18.042;2022-08-19T05:42:14;101018.28;;;21.39;100.00
25658;BME280;13517;59.320;18.042;2022-08-19T05:44:42;100983.38;;;21.31;100.00
25658;BME280;13517;59.320;18.042;2022-08-19T05:47:10;101015.44;;;21.57;100.00
25658;BME280;13517;59.320;18.042;2022-08-19T05:49:36;100991.03;;;21.54;100.00
25658;BME280;13517;59.320;18.042;2022-08-19T05:52:08;101014.41;;;21.58;100.00
25658;BME280;13517;59.320;18.042;2022-08-19T05:54:34;101002.91;;;21.63;100.00
25658;BME280;13517;59.320;18.042;2022-08-19T05:57:02;101015.31;;;21.67;100.00
25658;BME280;13517;59.320;18.042;2022-08-19T05:59:28;100994.47;;;21.48;100.00
25658;BME280;13517;59.320;18.042;2022-08-19T06:01:54;100999.56;;;21.34;100.00
25658;BME280;13517;59.320;18.042;2022-08-19T06:04:22;101008.75;;;21.25;100.00
25658;BME280;13517;59.320;18.042;2022-08-19T06:06:49;101008.03;;;21.15;100.00
25658;BME280;13517;59.320;18.042;2022-08-19T06:09:17;100993.22;;;21.07;100.00
25658;BME280;13517;59.320;18.042;2022-08-19T06:11:51;100988.38;;;21.01;100.00
25658;BME280;13517;59.320;18.042;2022-08-19T06:14:28;100992.16;;;21.00;100.00
25658;BME280;13517;59.320;18.042;2022-08-19T06:16:54;100989.72;;;20.97;100.00
25658;BME280;13517;59.320;18.042;2022-08-19T06:19:20;100988.00;;;20.96;100.00
25658;BME280;13517;59.320;18.042;2022-08-19T06:21:48;100992.94;;;20.92;100.00
25658;BME280;13517;59.320;18.042;2022-08-19T06:24:21;100987.09;;;20.87;100.00
25658;BME280;13517;59.320;18.042;2022-08-19T06:26:50;100989.34;;;20.92;100.00
25658;BME280;13517;59.320;18.042;2022-08-19T06:29:18;100990.44;;;20.99;100.00
25658;BME280;13517;59.320;18.042;2022-08-19T06:31:47;100961.50;;;20.87;100.00
25658;BME280;13517;59.320;18.042;2022-08-19T06:34:16;100987.72;;;21.07;100.00
25658;BME280;13517;59.320;18.042;2022-08-19T06:36:44;100994.94;;;21.08;100.00
25658;BME280;13517;59.320;18.042;2022-08-19T06:39:13;100990.97;;;21.03;100.00
25658;BME280;13517;59.320;18.042;2022-08-19T06:41:42;101000.09;;;21.12;100.00
25658;BME280;13517;59.320;18.042;2022-08-19T06:44:09;100996.00;;;21.16;100.00
25658;BME280;13517;59.320;18.042;2022-08-19T06:46:36;100997.41;;;21.20;100.00
25658;BME280;13517;59.320;18.042;2022-08-19T06:49:02;101000.84;;;21.22;100.00
25658;BME280;13517;59.320;18.042;2022-08-19T06:51:28;101016.34;;;21.31;100.00
25658;BME280;13517;59.320;18.042;2022-08-19T06:53:54;100991.59;;;21.23;100.00
25658;BME280;13517;59.320;18.042;2022-08-19T06:56:24;101011.59;;;21.42;100.00
25658;BME280;13517;59.320;18.042;2022-08-19T06:58:50;100998.91;;;21.41;100.00
25658;BME280;13517;59.320;18.042;2022-08-19T07:01:19;101013.00;;;21.54;100.00
25658;BME280;13517;59.320;18.042;2022-08-19T07:03:45;100994.47;;;21.48;100.00
25658;BME280;13517;59.320;18.042;2022-08-19T07:06:13;101010.22;;;21.72;100.00
25658;BME280;13517;59.320;18.042;2022-08-19T07:08:40;100982.66;;;21.64;100.00
25658;BME280;13517;59.320;18.042;2022-08-19T07:11:08;101008.72;;;21.86;100.00
25658;BME280;13517;59.320;18.042;2022-08-19T07:13:34;100982.53;;;21.74;100.00
25658;BME280;13517;59.320;18.042;2022-08-19T07:16:07;101013.91;;;21.98;100.00
25658;BME280;13517;59.320;18.042;2022-08-19T07:18:33;100990.13;;;21.88;100.00
25658;BME280;13517;59.320;18.042;2022-08-19T07:21:06;101017.34;;;22.08;100.00
25658;BME280;13517;59.320;18.042;2022-08-19T07:23:32;101013.78;;;22.16;100.00
25658;BME280;13517;59.320;18.042;2022-08-19T07:25:57;101009.63;;;22.20;100.00
25658;BME280;13517;59.320;18.042;2022-08-19T07:28:22;100987.78;;;22.10;100.00
25658;BME280;13517;59.320;18.042;2022-08-19T07:30:48;101022.19;;;22.39;100.00
25658;BME280;13517;59.320;18.042;2022-08-19T07:33:15;101011.19;;;22.39;100.00
25658;BME280;13517;59.320;18.042;2022-08-19T07:35:41;101032.25;;;22.57;100.00
25658;BME280;13517;59.320;18.042;2022-08-19T07:38:07;101010.03;;;22.50;100.00
25658;BME280;13517;59.320;18.042;2022-08-19T07:40:32;100981.44;;;22.43;100.00
25658;BME280;13517;59.320;18.042;2022-08-19T07:42:57;101030.34;;;22.74;100.00
25658;BME280;13517;59.320;18.042;2022-08-19T07:45:23;100957.19;;;22.38;100.00
25658;BME280;13517;59.320;18.042;2022-08-19T07:47:48;100985.09;;;22.68;100.00
25658;BME280;13517;59.320;18.042;2022-08-19T07:50:14;101004.19;;;22.87;100.00
25658;BME280;13517;59.320;18.042;2022-08-19T07:52:39;101020.53;;;22.96;100.00
25658;BME280;13517;59.320;18.042;2022-08-19T07:55:06;101022.22;;;23.06;100.00
25658;BME280;13517;59.320;18.042;2022-08-19T07:57:32;101017.72;;;23.13;100.00
25658;BME280;13517;59.320;18.042;2022-08-19T07:59:58;101015.47;;;23.17;100.00
25658;BME280;13517;59.320;18.042;2022-08-19T08:02:23;101009.44;;;23.21;100.00
25658;BME280;13517;59.320;18.042;2022-08-19T08:04:49;101009.06;;;23.24;100.00
25658;BME280;13517;59.320;18.042;2022-08-19T08:07:32;101003.06;;;23.21;100.00
25658;BME280;13517;59.320;18.042;2022-08-19T08:10:16;101019.41;;;23.31;100.00
25658;BME280;13517;59.320;18.042;2022-08-19T08:12:42;101020.94;;;23.42;100.00
25658;BME280;13517;59.320;18.042;2022-08-19T08:15:14;101017.84;;;23.45;100.00
25658;BME280;13517;59.320;18.042;2022-08-19T08:17:42;101007.66;;;23.45;100.00
25658;BME280;13517;59.320;18.042;2022-08-19T08:20:08;101009.91;;;23.50;100.00
25658;BME280;13517;59.320;18.042;2022-08-19T08:22:34;101015.56;;;23.57;100.00
25658;BME280;13517;59.320;18.042;2022-08-19T08:25:22;101014.16;;;23.61;100.00
25658;BME280;13517;59.320;18.042;2022-08-19T08:27:48;101016.19;;;23.67;100.00
25658;BME280;13517;59.320;18.042;2022-08-19T08:30:24;101009.81;;;23.66;99.53
25658;BME280;13517;59.320;18.042;2022-08-19T08:32:51;101010.81;;;23.74;99.36
25658;BME280;13517;59.320;18.042;2022-08-19T08:35:19;100961.13;;;23.50;98.88
25658;BME280;13517;59.320;18.042;2022-08-19T08:37:46;101002.31;;;23.84;98.27
25658;BME280;13517;59.320;18.042;2022-08-19T08:43:11;101010.22;;;23.87;96.38
25658;BME280;13517;59.320;18.042;2022-08-19T08:45:47;101006.06;;;23.91;96.27
25658;BME280;13517;59.320;18.042;2022-08-19T08:49:02;101005.22;;;23.90;95.29
25658;BME280;13517;59.320;18.042;2022-08-19T08:51:34;101006.03;;;23.99;95.84
25658;BME280;13517;59.320;18.042;2022-08-19T08:54:01;101022.00;;;24.12;94.72
25658;BME280;13517;59.320;18.042;2022-08-19T08:56:28;101019.06;;;24.14;94.32
25658;BME280;13517;59.320;18.042;2022-08-19T08:59:05;101027.34;;;24.14;93.63
25658;BME280;13517;59.320;18.042;2022-08-19T09:01:35;100978.81;;;23.96;94.59
25658;BME280;13517;59.320;18.042;2022-08-19T09:04:04;101016.94;;;24.24;92.90
25658;BME280;13517;59.320;18.042;2022-08-19T09:06:51;101010.72;;;24.22;91.92
25658;BME280;13517;59.320;18.042;2022-08-19T09:09:35;101005.91;;;24.24;92.17
25658;BME280;13517;59.320;18.042;2022-08-19T09:12:16;101003.09;;;24.32;91.96
25658;BME280;13517;59.320;18.042;2022-08-19T09:14:57;101004.13;;;24.31;90.99
25658;BME280;13517;59.320;18.042;2022-08-19T09:17:26;100994.41;;;24.35;90.82
25658;BME280;13517;59.320;18.042;2022-08-19T09:20:00;100995.41;;;24.43;90.49
25658;BME280;13517;59.320;18.042;2022-08-19T09:22:32;101000.84;;;24.51;90.21
25658;BME280;13517;59.320;18.042;2022-08-19T09:24:57;100984.75;;;24.55;89.47
25658;BME280;13517;59.320;18.042;2022-08-19T09:27:24;100987.84;;;24.60;88.68
25658;BME280;13517;59.320;18.042;2022-08-19T09:29:51;100993.84;;;24.64;88.04
25658;BME280;13517;59.320;18.042;2022-08-19T09:32:17;100986.22;;;24.66;87.03
25658;BME280;13517;59.320;18.042;2022-08-19T09:34:43;100996.91;;;24.69;86.49
25658;BME280;13517;59.320;18.042;2022-08-19T09:37:08;101010.63;;;24.77;85.48
25658;BME280;13517;59.320;18.042;2022-08-19T09:39:34;100995.78;;;24.78;85.00
25658;BME280;13517;59.320;18.042;2022-08-19T09:41:59;100989.53;;;24.84;84.57
25658;BME280;13517;59.320;18.042;2022-08-19T09:44:24;100968.22;;;24.70;84.05
25658;BME280;13517;59.320;18.042;2022-08-19T09:46:50;101004.63;;;24.97;83.98
25658;BME280;13517;59.320;18.042;2022-08-19T09:49:17;100980.31;;;24.92;82.69
25658;BME280;13517;59.320;18.042;2022-08-19T09:51:43;100954.19;;;24.80;82.96
25658;BME280;13517;59.320;18.042;2022-08-19T09:54:08;100991.00;;;25.10;82.67
25658;BME280;13517;59.320;18.042;2022-08-19T09:56:34;100992.63;;;25.20;82.20
25658;BME280;13517;59.320;18.042;2022-08-19T09:59:00;100959.16;;;24.99;82.12
25658;BME280;13517;59.320;18.042;2022-08-19T10:01:27;100976.50;;;25.23;80.84
25658;BME280;13517;59.320;18.042;2022-08-19T10:03:56;100990.88;;;25.34;80.35
25658;BME280;13517;59.320;18.042;2022-08-19T10:06:23;100970.59;;;25.26;80.31
25658;BME280;13517;59.320;18.042;2022-08-19T10:08:50;100988.41;;;25.39;79.84
25658;BME280;13517;59.320;18.042;2022-08-19T10:11:18;100975.47;;;25.39;80.23
25658;BME280;13517;59.320;18.042;2022-08-19T10:13:44;100980.59;;;25.42;80.21
25658;BME280;13517;59.320;18.042;2022-08-19T10:16:19;100984.88;;;25.45;79.88
25658;BME280;13517;59.320;18.042;2022-08-19T10:18:46;100984.63;;;25.55;79.74
25658;BME280;13517;59.320;18.042;2022-08-19T10:21:15;100980.44;;;25.59;78.94
25658;BME280;13517;59.320;18.042;2022-08-19T10:23:46;100970.00;;;25.61;79.77
25658;BME280;13517;59.320;18.042;2022-08-19T10:26:14;100955.91;;;25.56;79.68
25658;BME280;13517;59.320;18.042;2022-08-19T10:28:39;100968.66;;;25.72;78.16
25658;BME280;13517;59.320;18.042;2022-08-19T10:31:11;100961.72;;;25.61;77.61
25658;BME280;13517;59.320;18.042;2022-08-19T10:33:38;100948.16;;;25.66;76.89
25658;BME280;13517;59.320;18.042;2022-08-19T10:36:13;100972.69;;;25.91;76.83
25658;BME280;13517;59.320;18.042;2022-08-19T10:38:42;100972.97;;;25.96;75.69
25658;BME280;13517;59.320;18.042;2022-08-19T10:41:15;100973.97;;;26.10;74.36
25658;BME280;13517;59.320;18.042;2022-08-19T10:43:41;100971.75;;;26.21;73.18
25658;BME280;13517;59.320;18.042;2022-08-19T10:46:08;100959.69;;;26.29;72.49
25658;BME280;13517;59.320;18.042;2022-08-19T10:48:34;100975.78;;;26.40;71.53
25658;BME280;13517;59.320;18.042;2022-08-19T10:51:00;100962.69;;;26.56;69.28
25658;BME280;13517;59.320;18.042;2022-08-19T10:53:43;100972.03;;;26.48;68.03
25658;BME280;13517;59.320;18.042;2022-08-19T10:56:09;100958.88;;;26.57;69.17
25658;BME280;13517;59.320;18.042;2022-08-19T10:58:52;100965.19;;;26.72;67.94
25658;BME280;13517;59.320;18.042;2022-08-19T11:01:18;100939.84;;;26.75;66.75
25658;BME280;13517;59.320;18.042;2022-08-19T11:03:43;100954.47;;;26.91;66.02
25658;BME280;13517;59.320;18.042;2022-08-19T11:06:10;100961.81;;;27.05;66.84
25658;BME280;13517;59.320;18.042;2022-08-19T11:08:36;100946.06;;;27.13;64.48
25658;BME280;13517;59.320;18.042;2022-08-19T11:11:03;100959.63;;;27.36;63.62
25658;BME280;13517;59.320;18.042;2022-08-19T11:13:36;100963.28;;;27.43;61.71
25658;BME280;13517;59.320;18.042;2022-08-19T11:16:14;100930.00;;;27.43;60.34
25658;BME280;13517;59.320;18.042;2022-08-19T11:18:45;100924.34;;;27.58;58.97
25658;BME280;13517;59.320;18.042;2022-08-19T11:21:14;100953.44;;;27.90;58.05
25658;BME280;13517;59.320;18.042;2022-08-19T11:23:42;100949.19;;;27.94;57.36
25658;BME280;13517;59.320;18.042;2022-08-19T11:26:08;100949.41;;;27.99;57.24
25658;BME280;13517;59.320;18.042;2022-08-19T11:28:33;100947.28;;;28.08;56.90
25658;BME280;13517;59.320;18.042;2022-08-19T11:30:59;100940.88;;;28.14;56.33
25658;BME280;13517;59.320;18.042;2022-08-19T11:33:24;100943.03;;;28.12;55.71
25658;BME280;13517;59.320;18.042;2022-08-19T11:35:51;100940.66;;;28.02;55.32
25658;BME280;13517;59.320;18.042;2022-08-19T11:38:17;100950.28;;;28.20;55.06
25658;BME280;13517;59.320;18.042;2022-08-19T11:40:43;100928.50;;;28.03;55.69
25658;BME280;13517;59.320;18.042;2022-08-19T11:43:09;100946.00;;;28.10;55.72
25658;BME280;13517;59.320;18.042;2022-08-19T11:45:35;100943.47;;;28.16;55.37
25658;BME280;13517;59.320;18.042;2022-08-19T11:48:01;100951.63;;;28.24;54.08
25658;BME280;13517;59.320;18.042;2022-08-19T11:50:27;100933.84;;;28.11;53.42
25658;BME280;13517;59.320;18.042;2022-08-19T11:52:56;100955.25;;;28.24;53.08
25658;BME280;13517;59.320;18.042;2022-08-19T11:55:22;100957.16;;;28.31;52.68
25658;BME280;13517;59.320;18.042;2022-08-19T11:57:47;100952.47;;;28.31;52.43
25658;BME280;13517;59.320;18.042;2022-08-19T12:00:13;100911.63;;;28.05;52.57
25658;BME280;13517;59.320;18.042;2022-08-19T12:02:39;100942.84;;;28.27;52.72
25658;BME280;13517;59.320;18.042;2022-08-19T12:05:05;100942.41;;;28.23;52.45
25658;BME280;13517;59.320;18.042;2022-08-19T12:07:30;100945.84;;;28.32;52.08
25658;BME280;13517;59.320;18.042;2022-08-19T12:09:58;100941.31;;;28.18;51.74
25658;BME280;13517;59.320;18.042;2022-08-19T12:12:24;100952.28;;;28.33;51.18
25658;BME280;13517;59.320;18.042;2022-08-19T12:14:49;100953.34;;;28.32;51.88
25658;BME280;13517;59.320;18.042;2022-08-19T12:17:22;100913.53;;;28.04;51.70
25658;BME280;13517;59.320;18.042;2022-08-19T12:19:47;100920.78;;;28.05;51.85
25658;BME280;13517;59.320;18.042;2022-08-19T12:22:12;100953.75;;;28.22;51.47
25658;BME280;13517;59.320;18.042;2022-08-19T12:24:38;100937.69;;;28.10;51.45
25658;BME280;13517;59.320;18.042;2022-08-19T12:27:03;100943.91;;;28.19;51.52
25658;BME280;13517;59.320;18.042;2022-08-19T12:29:29;100935.81;;;28.24;51.68
25658;BME280;13517;59.320;18.042;2022-08-19T12:31:56;100942.22;;;28.45;51.49
25658;BME280;13517;59.320;18.042;2022-08-19T12:34:31;100945.63;;;28.67;51.14
25658;BME280;13517;59.320;18.042;2022-08-19T12:36:58;100949.47;;;28.80;50.16
25658;BME280;13517;59.320;18.042;2022-08-19T12:39:25;100926.81;;;28.76;49.81